Stations météo

réclame
Mon MeteoGroup
Malmö, Suède (2635): Température de l'air & dewpoint: 14.06.2018 17:00:00 - 20.06.2018 17:00:00 (CEST)Malmö, Suède (2635): Vitesse du vent & gusts: 14.06.2018 17:00:00 - 20.06.2018 17:00:00 (CEST)Malmö, Suède (2635): Direction du vent: 14.06.2018 17:00:00 - 20.06.2018 17:00:00 (CEST)Malmö, Suède (2635): visibility: 14.06.2018 17:00:00 - 20.06.2018 17:00:00 (CEST)Malmö, Suède (2635): Quantités de précipitations: 14.06.2018 17:00:00 - 20.06.2018 17:00:00 (CEST)
Date & Time tt [°C] td [°C] ff [km/h] ff [knt] fx [km/h] fx [knt] dd vv [km] rr [mm]
20.06.2018 17:00:00 23,4 15,4 11 6 43 23 WSW 26 0,0
20.06.2018 16:00:00 22,6 15,2 10 5 43 23 SW 25 0,0
20.06.2018 15:00:00 23,1 15,3 11 6 44 24 SW 23 0,0
20.06.2018 14:00:00 22,7 14,7 14 8 44 24 SW 18 0,0
20.06.2018 13:00:00 21,0 14,5 14 8 34 18 SW 18 0,0
20.06.2018 12:00:00 19,2 12,8 16 8 33 18 SSW 15 0,0
20.06.2018 11:00:00 17,7 10,7 10 5 27 14 SSW 19 0,0
20.06.2018 10:00:00 16,3 10,7 6 3 22 12 SW 17 0,0
20.06.2018 09:00:00 14,8 9,6 10 5 22 12 WSW 18 0,0
20.06.2018 08:00:00 14,6 9,3 9 5 22 12 W 16 0,0
20.06.2018 07:00:00 14,1 8,8 13 7 22 12 W 20 0,0
20.06.2018 06:00:00 13,5 8,8 11 6 25 14 W 17 0,0
20.06.2018 05:00:00 13,0 8,5 8 5 26 14 W 18 0,0
20.06.2018 04:00:00 13,4 8,3 12 6 30 16 W 19 0,0
20.06.2018 03:00:00 13,5 8,1 13 7 30 16 W 19 0,0
20.06.2018 02:00:00 13,9 8,1 13 7 30 16 W 21 0,0
20.06.2018 01:00:00 14,6 7,8 12 7 30 16 W 23 0,0
20.06.2018 00:00:00 15,3 7,2 13 7 29 15 W 24 0,0
19.06.2018 23:00:00 15,6 7,3 10 6 31 17 WNW 20 0,0
19.06.2018 22:00:00 16,4 7,1 11 6 35 19 WNW 29 0,0
19.06.2018 21:00:00 17,4 6,4 16 9 38 20 WNW 26 0,0
19.06.2018 20:00:00 19,0 6,7 17 9 38 20 WNW 24 0,0
19.06.2018 19:00:00 20,1 6,9 17 9 42 23 WNW 25 0,0
19.06.2018 18:00:00 21,2 6,6 20 11 44 24 WNW 29 0,0
19.06.2018 17:00:00 21,4 7,7 20 11 53 29 W 24 0,0
19.06.2018 16:00:00 21,9 8,3 23 13 53 29 W 16 0,0
19.06.2018 15:00:00 21,8 9,8 26 14 45 24 W 17 0,0
19.06.2018 14:00:00 21,4 11,5 21 11 42 23 W 16 0,0
19.06.2018 13:00:00 20,6 12,1 22 12 40 22 W 17 0,0
19.06.2018 12:00:00 20,2 12,5 19 10 40 22 W 16 0,0
19.06.2018 11:00:00 18,9 12,7 22 12 39 21 W 18 0,0
19.06.2018 10:00:00 18,5 12,4 22 12 45 24 W 18 0,0
19.06.2018 09:00:00 17,4 12,6 26 14 45 24 W 15 0,0
19.06.2018 08:00:00 16,8 11,8 17 9 36 20 W 20 0,0
19.06.2018 07:00:00 16,1 10,8 16 9 36 20 W 21 0,0
19.06.2018 06:00:00 15,9 10,8 16 9 35 19 W 23 0,0
19.06.2018 05:00:00 16,3 11,8 18 10 32 18 W 22 0,0
19.06.2018 04:00:00 16,8 12,5 15 8 32 17 W 25 0,0
19.06.2018 03:00:00 16,9 13,1 11 6 28 15 W 25 0,0
19.06.2018 02:00:00 17,0 14,1 13 7 27 14 W 18 0,0
19.06.2018 01:00:00 17,1 14,6 11 6 25 13 WSW 18 0,0
19.06.2018 00:00:00 16,9 14,5 9 5 25 13 WSW 25 0,0
18.06.2018 23:00:00 17,1 14,1 8 4 23 13 WSW 32 0,0
18.06.2018 22:00:00 17,7 14,1 8 4 27 15 WSW 22 0,0
18.06.2018 21:00:00 18,3 13,9 8 4 27 15 WSW 18 0,0
18.06.2018 20:00:00 18,7 13,3 10 6 26 14 WSW 19 0,0
18.06.2018 19:00:00 19,1 12,2 9 5 26 14 WSW 22 0,0
18.06.2018 18:00:00 19,5 12,5 7 4 26 14 SSW 32 0,0
18.06.2018 17:00:00 20,4 11,6 11 6 36 19 WSW 30 0,0
18.06.2018 16:00:00 20,0 10,9 10 5 37 20 SW 32 0,0
18.06.2018 15:00:00 20,4 11,1 10 6 29 16 WSW 24 0,0
18.06.2018 14:00:00 19,7 12,0 11 6 31 17 SW 28 0,0
18.06.2018 13:00:00 19,6 11,0 11 6 31 17 WSW 23 0,0
18.06.2018 12:00:00 19,0 11,4 12 7 31 17 WSW 27 0,0
18.06.2018 11:00:00 18,8 11,6 11 6 27 15 WSW 22 0,0
18.06.2018 10:00:00 18,2 10,8 10 5 29 16 WSW 23 0,0
18.06.2018 09:00:00 16,5 11,0 16 8 29 16 W 24 0,0
18.06.2018 08:00:00 16,4 10,9 13 7 25 14 W 24 0,0
18.06.2018 07:00:00 15,8 10,9 12 7 24 13 W 22 0,0
18.06.2018 06:00:00 14,9 11,3 8 4 18 10 W 19 0,0
18.06.2018 05:00:00 14,4 11,0 10 5 19 10 W 21 0,0
18.06.2018 04:00:00 14,7 11,0 10 6 19 10 W 22 0,0
18.06.2018 03:00:00 14,6 10,3 9 5 22 12 W 28 0,0
18.06.2018 02:00:00 14,9 10,0 10 5 22 12 W 34 0,0
18.06.2018 01:00:00 15,6 8,5 11 6 25 13 W 40 0,0
18.06.2018 00:00:00 - - - - - - - - -
17.06.2018 23:00:00 16,5 8,2 14 8 31 17 W 49 0,0
17.06.2018 22:00:00 17,5 7,5 17 9 31 17 W 42 0,0
17.06.2018 21:00:00 17,9 9,5 9 5 32 17 W 43 0,0
17.06.2018 20:00:00 19,0 8,6 17 9 32 17 W 39 0,0
17.06.2018 19:00:00 18,8 10,6 16 9 29 16 W 38 0,0
17.06.2018 18:00:00 20,0 10,0 14 8 37 20 W 34 0,0
17.06.2018 17:00:00 19,4 11,3 14 8 38 21 W 31 0,0
17.06.2018 16:00:00 21,0 11,9 12 7 38 21 WSW 31 0,0
17.06.2018 15:00:00 20,5 11,7 16 9 37 20 W 21 0,0
17.06.2018 14:00:00 21,2 13,1 11 6 32 18 SW 20 0,0
17.06.2018 13:00:00 20,3 14,1 9 5 27 14 SW 21 0,0
17.06.2018 12:00:00 18,5 14,2 15 8 27 14 W 21 0,0
17.06.2018 11:00:00 19,6 14,8 7 4 21 11 SW 29 0,0
17.06.2018 10:00:00 17,4 15,7 7 4 13 7 SE 17 0,0
17.06.2018 09:00:00 16,3 15,5 4 2 7 4 SE 10 1,5
17.06.2018 08:00:00 15,7 14,6 2 1 9 5 SW 8 0,8
17.06.2018 07:00:00 16,2 13,6 2 1 11 6 E 24 0,1
17.06.2018 06:00:00 15,6 13,2 6 3 13 7 ESE 29 0,0
17.06.2018 05:00:00 14,6 12,8 4 2 16 9 E 22 0,0
17.06.2018 04:00:00 14,4 12,5 5 3 16 9 ESE 23 0,0
17.06.2018 03:00:00 14,3 12,7 10 5 22 12 E 21 0,0
17.06.2018 02:00:00 14,5 12,6 12 6 32 17 E 29 0,0
17.06.2018 01:00:00 14,7 12,4 16 9 32 17 ESE 35 0,9
17.06.2018 00:00:00 15,2 12,1 6 3 26 14 ESE 6 2,0
16.06.2018 23:00:00 16,2 11,2 14 8 27 15 ESE 38 0,0
16.06.2018 22:00:00 16,4 11,9 17 9 29 16 ESE 37 0,4
16.06.2018 21:00:00 18,0 9,7 6 3 33 18 ESE 40 0,0
16.06.2018 20:00:00 18,5 8,2 18 10 33 18 ESE 39 0,0
16.06.2018 19:00:00 19,1 8,3 16 9 31 17 ESE 38 0,0
16.06.2018 18:00:00 19,5 8,2 19 11 31 17 SE 39 0,0
16.06.2018 17:00:00 20,7 8,7 17 9 31 17 ESE 28 0,0
16.06.2018 16:00:00 21,4 8,5 17 9 29 16 ESE 26 0,0
16.06.2018 15:00:00 21,0 7,6 16 9 26 14 SE 27 0,0
16.06.2018 14:00:00 19,9 9,0 13 7 22 12 SE 28 0,0
16.06.2018 13:00:00 19,2 10,7 11 6 22 12 SE 29 0,0
16.06.2018 12:00:00 19,5 8,5 9 5 14 8 SSE 34 0,0
16.06.2018 11:00:00 19,1 8,0 5 3 14 8 SE 28 0,0
16.06.2018 10:00:00 19,6 7,7 5 3 14 8 S 25 0,0
16.06.2018 09:00:00 19,4 9,7 5 3 14 7 WSW 22 0,0
16.06.2018 08:00:00 19,7 11,0 4 2 10 6 SW 26 0,0
16.06.2018 07:00:00 18,0 13,7 3 1 7 4 SW 20 0,0
16.06.2018 06:00:00 13,3 11,8 0 0 7 4 N 18 0,0
16.06.2018 05:00:00 11,9 10,5 3 2 7 4 SSE 21 0,0
16.06.2018 04:00:00 10,5 9,5 2 1 5 3 SE 18 0,0
16.06.2018 03:00:00 10,6 9,5 2 1 5 3 SE 21 0,0
16.06.2018 02:00:00 10,1 8,9 0 0 3 2 N 22 0,0
16.06.2018 01:00:00 10,2 8,6 0 0 3 2 N 31 0,0
16.06.2018 00:00:00 11,2 8,9 0 0 4 2 N 26 0,0
15.06.2018 23:00:00 12,2 8,1 0 0 4 2 N 31 0,0
15.06.2018 22:00:00 14,1 6,7 0 0 9 5 N 30 0,0
15.06.2018 21:00:00 17,4 6,5 0 0 17 9 N 41 0,0
15.06.2018 20:00:00 20,0 5,5 5 3 21 12 NNW 42 0,0
15.06.2018 19:00:00 20,0 5,4 8 4 23 13 NNW 41 0,0
15.06.2018 18:00:00 21,1 7,3 9 5 24 13 NW 38 0,0
15.06.2018 17:00:00 21,6 8,3 11 6 24 13 NNW 32 0,0
15.06.2018 16:00:00 21,2 8,6 10 5 24 13 NNW 29 0,0
15.06.2018 15:00:00 20,1 9,4 9 5 20 11 NW 20 0,0
15.06.2018 14:00:00 19,5 9,4 9 5 23 12 NW 30 0,0
15.06.2018 13:00:00 19,6 11,0 7 4 25 14 NW 23 0,0
15.06.2018 12:00:00 18,9 11,8 12 7 25 14 W 16 0,0
15.06.2018 11:00:00 18,2 10,8 9 5 22 12 WNW 16 0,0
15.06.2018 10:00:00 17,7 10,2 10 5 22 12 W 17 0,0
15.06.2018 09:00:00 17,8 11,6 8 4 21 12 NW 15 0,0
15.06.2018 08:00:00 17,1 12,2 9 5 21 12 WNW 16 0,0
15.06.2018 07:00:00 14,9 12,0 10 5 18 10 W 13 0,0
15.06.2018 06:00:00 15,0 12,2 9 5 17 9 W 13 0,0
15.06.2018 05:00:00 14,5 12,4 6 4 23 13 W 14 0,0
15.06.2018 04:00:00 15,1 12,9 9 5 29 16 W 15 0,0
15.06.2018 03:00:00 15,3 14,1 11 6 29 16 W 9 0,5
15.06.2018 02:00:00 16,2 13,4 12 7 29 15 W 9 0,0
15.06.2018 01:00:00 16,6 12,8 9 5 19 11 WSW 17 0,0
15.06.2018 00:00:00 16,5 12,5 6 3 26 14 WSW 19 0,0
14.06.2018 23:00:00 16,3 12,6 5 3 26 14 WSW 17 0,0
14.06.2018 22:00:00 17,1 11,9 6 4 24 13 SW 23 0,0
14.06.2018 21:00:00 18,0 11,1 8 4 28 15 S 38 0,0
14.06.2018 20:00:00 18,2 10,6 9 5 28 15 SSW 34 0,0
14.06.2018 19:00:00 19,5 9,6 8 5 31 17 SW 25 0,0
14.06.2018 18:00:00 20,4 10,7 10 5 31 17 SW 26 0,0
14.06.2018 17:00:00 20,4 11,2 11 6 30 16 SW 23 0,0

tt = Température de l'air
td = dewpoint
ff = Vitesse du vent
fx = gusts
dd = Direction du vent
vv = visibility
rr = Quantités de précipitations

stations d'obs. à proximité